Quinby, Virginia
Current Conditions -  °F | °C
As of 9:15 PM on Wednesday 17 Dec 2014 (Local Time) from KMFV Reporting Station
Haze Haze  
Wind Chill: 34°   Ceiling: Unl
Heat Index: 37°   Visibility: 2mi
Dew Point: 36°   Wind: 5mph
Humidity: 93%   Direction: 10°N
Pressure: 30.02"   Gusts: NA
Location:  37.55°N, 75.73°W
Report Text: KMFV 180215Z AUTO 01004KT 2SM BR CLR 03/02 A3002 RMK AO2 VIS 1/2V5
Loading
Personal Weather Stations






























Interactive Weather Map New forecast layout! Learn more

10-Day Weather Forecast

Advertisements
Track Severe Weather on mobile